createdAt,value
2023-03-29T00:00:13.282Z,-3.37
2023-03-29T00:08:56.336Z,-3.58
2023-03-29T00:17:21.166Z,-3.76
2023-03-29T00:25:45.482Z,-3.91
2023-03-29T00:34:08.382Z,-4.06
2023-03-29T00:42:31.358Z,-4.09
2023-03-29T00:51:00.602Z,-4.04
2023-03-29T00:59:26.077Z,-4.04
2023-03-29T01:08:06.701Z,-4.09
2023-03-29T01:16:33.191Z,-4.18
2023-03-29T01:25:16.673Z,-4.31
2023-03-29T01:33:44.485Z,-4.41
2023-03-29T01:42:16.885Z,-4.40
2023-03-29T01:50:56.163Z,-4.37
2023-03-29T01:59:24.067Z,-4.47
2023-03-29T02:07:48.751Z,-4.62
2023-03-29T02:16:13.966Z,-4.77
2023-03-29T02:24:39.076Z,-4.92
2023-03-29T02:33:11.193Z,-5.05
2023-03-29T02:41:37.230Z,-5.20
2023-03-29T02:50:01.617Z,-5.32
2023-03-29T02:58:28.736Z,-5.30
2023-03-29T03:06:53.647Z,-5.22
2023-03-29T03:15:16.917Z,-5.23
2023-03-29T03:23:40.646Z,-5.29
2023-03-29T03:32:04.395Z,-5.39
2023-03-29T03:41:00.141Z,-5.52
2023-03-29T03:49:25.259Z,-5.66
2023-03-29T03:57:48.488Z,-5.75
2023-03-29T04:06:13.853Z,-5.72
2023-03-29T04:15:03.865Z,-5.57
2023-03-29T04:23:27.273Z,-5.50
2023-03-29T04:31:50.686Z,-5.53
2023-03-29T04:40:50.713Z,-5.55
2023-03-29T04:49:33.397Z,-5.54
2023-03-29T04:57:56.588Z,-5.51
2023-03-29T05:06:30.301Z,-5.37
2023-03-29T05:14:55.532Z,-5.08
2023-03-29T05:23:21.531Z,-4.83
2023-03-29T05:32:05.023Z,-4.67
2023-03-29T05:40:31.475Z,-4.50
2023-03-29T05:49:14.759Z,-3.95
2023-03-29T05:57:48.333Z,-1.84
2023-03-29T06:06:12.414Z,-0.40
2023-03-29T06:14:37.498Z,-0.06
2023-03-29T06:23:15.843Z,0.25
2023-03-29T06:31:39.206Z,0.72
2023-03-29T06:40:06.385Z,1.15
2023-03-29T06:48:39.913Z,1.77
2023-03-29T06:57:08.030Z,2.54
2023-03-29T07:05:31.761Z,3.00
2023-03-29T07:13:56.251Z,3.21
2023-03-29T07:22:19.457Z,3.31
2023-03-29T07:30:46.847Z,3.26
2023-03-29T07:39:13.682Z,3.14
2023-03-29T07:47:41.264Z,3.14
2023-03-29T07:56:05.564Z,3.17
2023-03-29T08:04:45.062Z,3.21
2023-03-29T08:13:14.028Z,3.18
2023-03-29T08:21:56.879Z,3.23
2023-03-29T08:30:21.308Z,3.39
2023-03-29T08:38:44.846Z,3.52
2023-03-29T08:47:26.654Z,3.66
2023-03-29T08:55:52.984Z,3.98
2023-03-29T09:04:37.930Z,4.21
2023-03-29T09:13:34.818Z,4.10
2023-03-29T09:22:02.969Z,4.16
2023-03-29T09:30:34.694Z,4.36
2023-03-29T09:39:00.902Z,4.40
2023-03-29T09:47:36.186Z,4.50
2023-03-29T09:56:02.220Z,4.60
2023-03-29T10:04:44.970Z,4.63
2023-03-29T10:13:17.254Z,4.56
2023-03-29T10:21:42.234Z,4.66
2023-03-29T10:30:18.883Z,4.84
2023-03-29T10:38:42.057Z,4.95
2023-03-29T10:47:20.400Z,5.00
2023-03-29T10:56:00.893Z,5.04
2023-03-29T11:04:45.869Z,5.02
2023-03-29T11:13:31.602Z,5.08
2023-03-29T11:22:13.037Z,5.23
2023-03-29T11:30:56.939Z,5.44
2023-03-29T11:39:20.318Z,5.50
2023-03-29T11:47:46.915Z,5.50
2023-03-29T11:56:16.989Z,5.56
2023-03-29T12:04:49.689Z,5.62
2023-03-29T12:13:19.139Z,5.64
2023-03-29T12:21:44.451Z,5.77
2023-03-29T12:30:28.129Z,5.77
2023-03-29T12:38:52.911Z,5.83
2023-03-29T12:47:43.226Z,5.80
2023-03-29T12:56:08.771Z,5.88
2023-03-29T13:05:01.257Z,6.12
2023-03-29T13:13:29.743Z,6.15
2023-03-29T13:22:17.612Z,6.22
2023-03-29T13:30:59.042Z,6.25
2023-03-29T13:39:24.363Z,6.26
2023-03-29T13:48:02.335Z,6.21
2023-03-29T13:56:37.282Z,6.21
2023-03-29T14:05:04.255Z,6.22
2023-03-29T14:13:28.897Z,6.32
2023-03-29T14:21:53.277Z,6.25
2023-03-29T14:30:27.596Z,6.19
2023-03-29T14:38:53.917Z,6.20
2023-03-29T14:47:31.595Z,6.29
2023-03-29T14:55:55.751Z,6.34
2023-03-29T15:04:18.888Z,6.32
2023-03-29T15:12:42.525Z,6.35
2023-03-29T15:21:08.366Z,6.31
2023-03-29T15:29:44.035Z,6.20
2023-03-29T15:38:07.285Z,6.07
2023-03-29T15:46:30.280Z,5.94
2023-03-29T15:54:53.336Z,5.79
2023-03-29T16:03:16.448Z,5.56
2023-03-29T16:11:41.525Z,5.28
2023-03-29T16:20:05.633Z,5.05
2023-03-29T16:28:28.730Z,4.91
2023-03-29T16:36:53.086Z,4.81
2023-03-29T16:45:18.121Z,4.70
2023-03-29T16:53:42.145Z,4.51
2023-03-29T17:02:05.085Z,4.22
2023-03-29T17:10:28.515Z,3.88
2023-03-29T17:18:51.941Z,3.49
2023-03-29T17:27:15.631Z,3.10
2023-03-29T17:35:41.746Z,2.73
2023-03-29T17:44:05.490Z,2.41
2023-03-29T17:52:28.396Z,2.07
2023-03-29T18:00:51.629Z,1.66
2023-03-29T18:09:14.915Z,1.36
2023-03-29T18:17:38.331Z,1.13
2023-03-29T18:26:04.083Z,0.90
2023-03-29T18:34:28.198Z,0.65
2023-03-29T18:42:52.005Z,0.43
2023-03-29T18:51:16.259Z,0.22
2023-03-29T18:59:39.591Z,0.05
2023-03-29T19:08:06.199Z,-0.11
2023-03-29T19:16:29.135Z,-0.24
2023-03-29T19:24:52.817Z,-0.33
2023-03-29T19:33:16.161Z,-0.39
2023-03-29T19:41:41.408Z,-0.42
2023-03-29T19:50:07.045Z,-0.43
2023-03-29T19:58:30.788Z,-0.43
2023-03-29T20:06:53.642Z,-0.41
2023-03-29T20:15:16.979Z,-0.38
2023-03-29T20:23:40.365Z,-0.34
2023-03-29T20:32:03.891Z,-0.29
2023-03-29T20:40:29.193Z,-0.26
2023-03-29T20:48:55.080Z,-0.23
2023-03-29T20:57:20.961Z,-0.21
2023-03-29T21:05:44.710Z,-0.16
2023-03-29T21:14:09.295Z,-0.12
2023-03-29T21:22:34.950Z,-0.09
2023-03-29T21:30:58.521Z,-0.03
2023-03-29T21:39:21.677Z,0.07
2023-03-29T21:47:44.711Z,0.13
2023-03-29T21:56:09.068Z,0.06
2023-03-29T22:04:37.138Z,-0.05
2023-03-29T22:13:01.059Z,-0.13
2023-03-29T22:21:30.891Z,-0.11
2023-03-29T22:29:53.938Z,-0.02
2023-03-29T22:38:16.774Z,0.14
2023-03-29T22:46:39.852Z,0.33
2023-03-29T22:55:02.710Z,0.53
2023-03-29T23:03:26.944Z,0.69
2023-03-29T23:11:50.346Z,0.84
2023-03-29T23:20:14.244Z,0.95
2023-03-29T23:28:37.668Z,1.07
2023-03-29T23:37:00.577Z,1.20
2023-03-29T23:45:23.437Z,1.31
2023-03-29T23:53:47.001Z,1.37
